Flight Track Log - Related Links

Times and Time Zones

All times are in EDT time to prevent confusion due to time zone crossing. See the N777NC flight status page for this flight to view local times or setup timezone preferences in your user account.

Time Position Orientation Groundspeed Altitude Reporting Facility
EDT Latitude Longitude Course Direction KTS MPH feet Rate Location/Type
Sat 03:38:00 PM 40.1620 -80.1375 214° Southwest  Level FlightAware Approximate
Sat 03:39:00 PM 40.0810 -80.2084 214° Southwest  Level FlightAware Approximate
Sat 03:39:24 PM 40.2733 -80.3356 212° Southwest 240 276 9,100  Level Cleveland Center
Sat 03:40:00 PM 40.0015 -80.2819 217° Southwest  Level FlightAware Approximate
Sat 03:40:24 PM 40.1961 -80.3358 180° South 257 296 11,100  Level Cleveland Center
Sat 03:41:00 PM 39.9232 -80.3575 215° Southwest  Level FlightAware Approximate
Sat 03:41:24 PM 40.1128 -80.3497 187° South 281 323 12,300  Level Cleveland Center
Sat 03:42:00 PM 39.8430 -80.4297 215° Southwest  Level FlightAware Approximate
Sat 03:42:24 PM 40.0294 -80.4014 205° Southwest 314 361 14,500  Level Cleveland Center
Sat 03:43:00 PM 39.7697 -80.5106 237° Southwest  Level FlightAware Approximate
Sat 03:43:24 PM 39.9483 -80.4558 207° Southwest 327 376 16,300  Level Cleveland Center
Sat 03:44:00 PM 39.6884 -80.5793 212° Southwest  Level FlightAware Approximate
Sat 03:44:24 PM 39.8608 -80.5100 205° Southwest 339 390 17,900  Level Cleveland Center
Sat 03:45:24 PM 39.7733 -80.5669 207° Southwest 344 396 19,000 1,250 Climbing Cleveland Center
Sat 03:46:24 PM 39.6836 -80.6289 208° Southwest 349 402 20,400 1,277 Climbing Cleveland Center
Sat 03:46:58 PM 39.6317 -80.6617 206° Southwest 368 423 21,000 1,250 Climbing Indianapolis Center
Sat 03:48:00 PM 39.5369 -80.7217 206° Southwest 377 434 22,400 1,024 Climbing Indianapolis Center
Sat 03:49:01 PM 39.4403 -80.7847 207° Southwest 387 445 23,100 787 Climbing Indianapolis Center
Sat 03:50:02 PM 39.3403 -80.8514 207° Southwest 400 460 24,000 927 Climbing Indianapolis Center
Sat 03:51:04 PM 39.2386 -80.9192 207° Southwest 408 470 25,000 927 Climbing Indianapolis Center
Sat 03:52:05 PM 39.1367 -80.9881 208° Southwest 413 475 25,900 878 Climbing Indianapolis Center
Sat 03:53:07 PM 39.0325 -81.0592 208° Southwest 420 483 26,800 878 Climbing Indianapolis Center
Sat 03:54:08 PM 38.9072 -81.1450 208° Southwest 423 487 27,700 585 Climbing Indianapolis Center
Sat 03:55:10 PM 38.8011 -81.2181 208° Southwest 429 494 28,000 146 Climbing Indianapolis Center
Sat 03:56:11 PM 38.6911 -81.2903 207° Southwest 436 502 28,000  Level Indianapolis Center
Sat 03:57:12 PM 38.5789 -81.3622 207° Southwest 440 506 28,000  Level Indianapolis Center
Sat 03:58:14 PM 38.4664 -81.4297 205° Southwest 440 506 28,000  Level Indianapolis Center
Sat 03:59:15 PM 38.3536 -81.4928 204° Southwest 440 506 28,000  Level Indianapolis Center
Sat 04:00:16 PM 38.2397 -81.5522 202° Southwest 439 505 28,000  Level Indianapolis Center
Sat 04:01:18 PM 38.1258 -81.6053 200° South 436 502 28,000  Level Indianapolis Center
Sat 04:02:19 PM 38.0106 -81.6572 200° South 438 504 28,000  Level Indianapolis Center
Sat 04:03:20 PM 37.8939 -81.7039 198° South 437 503 28,000  Level Indianapolis Center
Sat 04:04:22 PM 37.7669 -81.7678 202° Southwest 439 505 28,000  Level Indianapolis Center
Sat 04:05:23 PM 37.6644 -81.8511 213° Southwest 438 504 28,000  Level Indianapolis Center
Sat 04:06:24 PM 37.5553 -81.9194 206° Southwest 437 503 28,000  Level Indianapolis Center
Sat 04:07:25 PM 37.4467 -81.9919 208° Southwest 438 504 28,000  Level Indianapolis Center
Sat 04:08:27 PM 37.3356 -82.0564 205° Southwest 436 502 28,000  Level Indianapolis Center
Sat 04:09:28 PM 37.2244 -82.1231 206° Southwest 439 505 28,000  Level Indianapolis Center
Sat 04:10:29 PM 37.1158 -82.1919 207° Southwest 436 502 28,000  Level Indianapolis Center
Sat 04:11:31 PM 37.0056 -82.2556 205° Southwest 433 498 28,000  Level Indianapolis Center
Sat 04:12:32 PM 36.8936 -82.3169 204° Southwest 434 499 28,000  Level Indianapolis Center
Sat 04:13:33 PM 36.7800 -82.3728 201° Southwest 435 501 28,000  Level Indianapolis Center
Sat 04:14:35 PM 36.6467 -82.4358 201° Southwest 433 498 28,000  Level Indianapolis Center
Sat 04:15:42 PM 36.5303 -82.4861 199° South 434 499 28,000  Level Atlanta Center
Sat 04:16:42 PM 36.4139 -82.5294 197° South 434 499 28,000  Level Atlanta Center
Sat 04:17:42 PM 36.2978 -82.5703 196° South 434 499 28,000  Level Atlanta Center
Sat 04:18:42 PM 36.1814 -82.6083 195° South 434 499 28,000  Level Atlanta Center
Sat 04:19:42 PM 36.0525 -82.6492 194° South 434 499 28,000  Level Atlanta Center
Sat 04:20:42 PM 35.9361 -82.6847 194° South 434 499 28,000  Level Atlanta Center
Sat 04:21:42 PM 35.8219 -82.7275 197° South 434 499 28,000  Level Atlanta Center
Sat 04:22:42 PM 35.7119 -82.7881 204° Southwest 434 499 28,000  Level Atlanta Center
Sat 04:23:42 PM 35.5997 -82.8511 205° Southwest 434 499 28,000 -350 Level Atlanta Center
Sat 04:24:42 PM 35.4919 -82.9164 206° Southwest 440 506 27,300 -750 Descending Atlanta Center
Sat 04:25:42 PM 35.3883 -82.9867 209° Southwest 440 506 26,500 -850 Descending Atlanta Center
Sat 04:26:42 PM 35.2908 -83.0567 210° Southwest 424 488 25,600 -750 Descending Atlanta Center
Sat 04:27:42 PM 35.2056 -83.1083 206° Southwest 419 482 25,000 -850 Descending Atlanta Center
Sat 04:28:42 PM 35.0808 -83.1506 195° South 413 475 23,900 -1,050 Descending Atlanta Center
Sat 04:29:42 PM 34.9581 -83.1897 195° South 430 495 22,900 -1,000 Descending Atlanta Center
Sat 04:30:42 PM 34.8456 -83.2289 196° South 437 503 21,900 -1,050 Descending Atlanta Center
Sat 04:31:42 PM 34.7250 -83.2933 204° Southwest 432 497 20,800 -1,050 Descending Atlanta Center
Sat 04:32:42 PM 34.6208 -83.3497 204° Southwest 425 489 19,800 -1,000 Descending Atlanta Center
Sat 04:33:42 PM 34.5442 -83.4486 227° Southwest 398 458 18,800 -1,150 Descending Atlanta Center
Sat 04:34:42 PM 34.4486 -83.5175 211° Southwest 403 464 17,500 -1,300 Descending Atlanta Center
Sat 04:35:42 PM 34.3592 -83.5983 217° Southwest 403 464 16,200 -1,650 Descending Atlanta Center
Sat 04:36:42 PM 34.2800 -83.6842 222° Southwest 393 452 14,200 -1,100 Descending Atlanta Center
Sat 04:37:42 PM 34.1925 -83.7525 213° Southwest 386 444 14,000 -100 Descending Atlanta Center
Sat 04:38:42 PM 34.1008 -83.8181 211° Southwest 381 438 14,000 -278 Level Atlanta Center
Sat 04:39:30 PM 34.0333 -83.8833 219° Southwest 390 449 13,500 -944 Descending Atlanta TRACON
Sat 04:40:30 PM 33.9667 -83.9833 231° Southwest 392 451 12,300 -700 Descending Atlanta TRACON
Sat 04:41:30 PM 33.8833 -84.0833 225° Southwest 383 441 12,100 -100 Descending Atlanta TRACON
Sat 04:42:30 PM 33.8333 -84.1667 234° Southwest 320 368 12,100  Level Atlanta TRACON
Sat 04:43:30 PM 33.7833 -84.2500 234° Southwest 283 326 12,100 -105 Level Atlanta TRACON
Sat 04:44:24 PM 33.7500 -84.3167 239° Southwest 256 295 11,900 -800 Descending Atlanta TRACON
Sat 04:45:30 PM 33.7333 -84.4000 256° West 251 289 10,500 -1,600 Descending Atlanta TRACON
Sat 04:46:24 PM 33.7167 -84.4667 253° West 268 308 8,700 -1,421 Descending Atlanta TRACON
Sat 04:47:24 PM 33.7000 -84.5500 257° West 245 282 7,800 -1,200 Descending Atlanta TRACON
Sat 04:48:24 PM 33.7167 -84.6333 284° West 243 280 6,300 -1,238 Descending Atlanta TRACON
Sat 04:49:30 PM 33.7167 -84.7333 270° West 239 275 5,200 -600 Descending Atlanta TRACON
Sat 04:50:24 PM 33.7167 -84.8000 270° West 232 267 5,100 -50 Descending Atlanta TRACON
Sat 04:51:30 PM 33.7167 -84.8833 270° West 243 280 5,100  Level Atlanta TRACON
Sat 04:52:24 PM 33.6833 -84.8833 180° South 222 255 5,100  Level Atlanta TRACON
Sat 04:53:24 PM 33.6500 -84.8167 121° Southeast 226 260 5,100  Level Atlanta TRACON
Sat 04:54:18 PM 33.6500 -84.7500 90° East 217 250 5,100 -105 Level Atlanta TRACON
Sat 04:55:18 PM 33.6500 -84.6833 90° East 186 214 4,900 -571 Descending Atlanta TRACON
Sat 04:56:24 PM 33.6500 -84.6167 90° East 191 220 3,900 -909 Descending Atlanta TRACON

Login

Don't have an account? Register now (free) for customized features, flight alerts, and more!